sensor_id;sensor_type;location;lat;lon;timestamp;P1;durP1;ratioP1;P2;durP2;ratioP2
9924;SDS011;5001;51.674;7.868;2023-04-25T00:02:24;12.87;;;6.80;;
9924;SDS011;5001;51.674;7.868;2023-04-25T00:04:51;20.53;;;8.07;;
9924;SDS011;5001;51.674;7.868;2023-04-25T00:07:19;15.67;;;6.80;;
9924;SDS011;5001;51.674;7.868;2023-04-25T00:09:46;10.57;;;5.93;;
9924;SDS011;5001;51.674;7.868;2023-04-25T00:12:13;20.97;;;9.60;;
9924;SDS011;5001;51.674;7.868;2023-04-25T00:14:40;19.10;;;8.63;;
9924;SDS011;5001;51.674;7.868;2023-04-25T00:17:07;19.20;;;8.90;;
9924;SDS011;5001;51.674;7.868;2023-04-25T00:19:34;24.20;;;7.93;;
9924;SDS011;5001;51.674;7.868;2023-04-25T00:22:01;22.30;;;8.37;;
9924;SDS011;5001;51.674;7.868;2023-04-25T00:24:28;18.73;;;8.07;;
9924;SDS011;5001;51.674;7.868;2023-04-25T00:26:56;20.73;;;8.37;;
9924;SDS011;5001;51.674;7.868;2023-04-25T00:29:22;19.70;;;8.07;;
9924;SDS011;5001;51.674;7.868;2023-04-25T00:31:49;18.03;;;8.30;;
9924;SDS011;5001;51.674;7.868;2023-04-25T00:34:17;11.20;;;6.87;;
9924;SDS011;5001;51.674;7.868;2023-04-25T00:36:44;13.83;;;7.30;;
9924;SDS011;5001;51.674;7.868;2023-04-25T00:39:11;13.60;;;6.43;;
9924;SDS011;5001;51.674;7.868;2023-04-25T00:41:38;15.60;;;7.77;;
9924;SDS011;5001;51.674;7.868;2023-04-25T00:44:08;15.10;;;9.07;;
9924;SDS011;5001;51.674;7.868;2023-04-25T00:46:38;17.17;;;8.43;;
9924;SDS011;5001;51.674;7.868;2023-04-25T00:49:06;14.83;;;7.57;;
9924;SDS011;5001;51.674;7.868;2023-04-25T00:51:33;17.17;;;7.27;;
9924;SDS011;5001;51.674;7.868;2023-04-25T00:54:00;10.97;;;7.90;;
9924;SDS011;5001;51.674;7.868;2023-04-25T00:56:28;18.50;;;8.60;;
9924;SDS011;5001;51.674;7.868;2023-04-25T00:58:55;14.73;;;7.70;;
9924;SDS011;5001;51.674;7.868;2023-04-25T01:01:23;13.77;;;7.17;;
9924;SDS011;5001;51.674;7.868;2023-04-25T01:03:50;10.80;;;6.50;;
9924;SDS011;5001;51.674;7.868;2023-04-25T01:06:19;9.93;;;5.63;;
9924;SDS011;5001;51.674;7.868;2023-04-25T01:08:46;12.97;;;6.30;;
9924;SDS011;5001;51.674;7.868;2023-04-25T01:11:13;11.63;;;7.00;;
9924;SDS011;5001;51.674;7.868;2023-04-25T01:13:40;9.07;;;6.07;;
9924;SDS011;5001;51.674;7.868;2023-04-25T01:16:07;10.47;;;6.23;;
9924;SDS011;5001;51.674;7.868;2023-04-25T01:18:34;12.70;;;6.33;;
9924;SDS011;5001;51.674;7.868;2023-04-25T01:21:06;11.77;;;6.87;;
9924;SDS011;5001;51.674;7.868;2023-04-25T01:23:35;11.87;;;6.50;;
9924;SDS011;5001;51.674;7.868;2023-04-25T01:26:04;11.27;;;6.87;;
9924;SDS011;5001;51.674;7.868;2023-04-25T01:28:32;15.93;;;7.53;;
9924;SDS011;5001;51.674;7.868;2023-04-25T01:31:00;15.63;;;7.40;;
9924;SDS011;5001;51.674;7.868;2023-04-25T01:33:28;10.03;;;6.30;;
9924;SDS011;5001;51.674;7.868;2023-04-25T01:35:56;10.07;;;6.37;;
9924;SDS011;5001;51.674;7.868;2023-04-25T01:38:23;12.63;;;8.07;;
9924;SDS011;5001;51.674;7.868;2023-04-25T01:40:51;10.63;;;7.53;;
9924;SDS011;5001;51.674;7.868;2023-04-25T01:43:18;11.90;;;6.83;;
9924;SDS011;5001;51.674;7.868;2023-04-25T01:45:45;11.50;;;6.20;;
9924;SDS011;5001;51.674;7.868;2023-04-25T01:48:14;11.93;;;7.00;;
9924;SDS011;5001;51.674;7.868;2023-04-25T01:50:42;11.20;;;6.57;;
9924;SDS011;5001;51.674;7.868;2023-04-25T01:53:10;12.00;;;6.43;;
9924;SDS011;5001;51.674;7.868;2023-04-25T01:55:41;12.83;;;6.87;;
9924;SDS011;5001;51.674;7.868;2023-04-25T01:58:12;11.63;;;7.60;;
9924;SDS011;5001;51.674;7.868;2023-04-25T02:01:08;13.33;;;8.53;;
9924;SDS011;5001;51.674;7.868;2023-04-25T02:03:43;13.90;;;8.37;;
9924;SDS011;5001;51.674;7.868;2023-04-25T02:06:19;13.87;;;7.80;;
9924;SDS011;5001;51.674;7.868;2023-04-25T02:08:47;13.93;;;8.50;;
9924;SDS011;5001;51.674;7.868;2023-04-25T02:11:15;12.50;;;8.27;;
9924;SDS011;5001;51.674;7.868;2023-04-25T02:13:50;16.43;;;8.90;;
9924;SDS011;5001;51.674;7.868;2023-04-25T02:16:38;17.73;;;9.50;;
9924;SDS011;5001;51.674;7.868;2023-04-25T02:19:06;12.27;;;8.20;;
9924;SDS011;5001;51.674;7.868;2023-04-25T02:21:33;16.47;;;9.60;;
9924;SDS011;5001;51.674;7.868;2023-04-25T02:24:03;14.83;;;9.20;;
9924;SDS011;5001;51.674;7.868;2023-04-25T02:26:30;13.53;;;9.23;;
9924;SDS011;5001;51.674;7.868;2023-04-25T02:28:57;13.10;;;9.27;;
9924;SDS011;5001;51.674;7.868;2023-04-25T02:31:24;12.73;;;8.13;;
9924;SDS011;5001;51.674;7.868;2023-04-25T02:33:52;12.43;;;7.83;;
9924;SDS011;5001;51.674;7.868;2023-04-25T02:36:21;12.27;;;8.13;;
9924;SDS011;5001;51.674;7.868;2023-04-25T02:38:48;14.30;;;7.80;;
9924;SDS011;5001;51.674;7.868;2023-04-25T02:41:15;13.83;;;7.07;;
9924;SDS011;5001;51.674;7.868;2023-04-25T02:43:42;13.80;;;9.00;;
9924;SDS011;5001;51.674;7.868;2023-04-25T02:46:09;11.77;;;7.37;;
9924;SDS011;5001;51.674;7.868;2023-04-25T02:48:38;14.00;;;8.30;;
9924;SDS011;5001;51.674;7.868;2023-04-25T02:51:05;20.27;;;8.93;;
9924;SDS011;5001;51.674;7.868;2023-04-25T02:53:32;11.87;;;7.90;;
9924;SDS011;5001;51.674;7.868;2023-04-25T02:55:59;16.13;;;9.80;;
9924;SDS011;5001;51.674;7.868;2023-04-25T02:58:27;15.03;;;6.70;;
9924;SDS011;5001;51.674;7.868;2023-04-25T03:00:54;11.83;;;7.13;;
9924;SDS011;5001;51.674;7.868;2023-04-25T03:03:21;11.77;;;7.23;;
9924;SDS011;5001;51.674;7.868;2023-04-25T03:05:50;17.37;;;10.83;;
9924;SDS011;5001;51.674;7.868;2023-04-25T03:08:22;18.10;;;10.40;;
9924;SDS011;5001;51.674;7.868;2023-04-25T03:10:49;15.10;;;8.67;;
9924;SDS011;5001;51.674;7.868;2023-04-25T03:13:18;15.93;;;9.30;;
9924;SDS011;5001;51.674;7.868;2023-04-25T03:15:45;17.13;;;8.20;;
9924;SDS011;5001;51.674;7.868;2023-04-25T03:18:12;16.60;;;7.10;;
9924;SDS011;5001;51.674;7.868;2023-04-25T03:20:39;14.50;;;7.53;;
9924;SDS011;5001;51.674;7.868;2023-04-25T03:23:08;11.23;;;6.17;;
9924;SDS011;5001;51.674;7.868;2023-04-25T03:25:35;13.70;;;8.23;;
9924;SDS011;5001;51.674;7.868;2023-04-25T03:28:03;14.30;;;6.73;;
9924;SDS011;5001;51.674;7.868;2023-04-25T03:30:31;14.77;;;7.10;;
9924;SDS011;5001;51.674;7.868;2023-04-25T03:32:58;13.10;;;7.47;;
9924;SDS011;5001;51.674;7.868;2023-04-25T03:35:25;12.13;;;6.50;;
9924;SDS011;5001;51.674;7.868;2023-04-25T03:37:53;11.80;;;7.07;;
9924;SDS011;5001;51.674;7.868;2023-04-25T03:40:26;14.93;;;6.37;;
9924;SDS011;5001;51.674;7.868;2023-04-25T03:43:16;16.70;;;5.70;;
9924;SDS011;5001;51.674;7.868;2023-04-25T03:45:49;12.83;;;5.90;;
9924;SDS011;5001;51.674;7.868;2023-04-25T03:48:20;11.13;;;5.67;;
9924;SDS011;5001;51.674;7.868;2023-04-25T03:50:52;15.97;;;5.00;;
9924;SDS011;5001;51.674;7.868;2023-04-25T03:53:21;8.07;;;5.47;;
9924;SDS011;5001;51.674;7.868;2023-04-25T03:56:06;11.07;;;5.23;;
9924;SDS011;5001;51.674;7.868;2023-04-25T03:58:35;14.00;;;4.87;;
9924;SDS011;5001;51.674;7.868;2023-04-25T04:01:02;9.40;;;5.17;;
9924;SDS011;5001;51.674;7.868;2023-04-25T04:03:36;14.87;;;5.00;;
9924;SDS011;5001;51.674;7.868;2023-04-25T04:06:04;10.87;;;4.97;;
9924;SDS011;5001;51.674;7.868;2023-04-25T04:08:36;19.00;;;5.60;;
9924;SDS011;5001;51.674;7.868;2023-04-25T04:11:03;17.47;;;5.23;;
9924;SDS011;5001;51.674;7.868;2023-04-25T04:13:31;16.27;;;4.63;;
9924;SDS011;5001;51.674;7.868;2023-04-25T04:15:58;12.90;;;5.37;;
9924;SDS011;5001;51.674;7.868;2023-04-25T04:18:26;11.53;;;5.10;;
9924;SDS011;5001;51.674;7.868;2023-04-25T04:20:55;12.20;;;5.40;;
9924;SDS011;5001;51.674;7.868;2023-04-25T04:23:25;10.27;;;4.80;;
9924;SDS011;5001;51.674;7.868;2023-04-25T04:25:54;9.17;;;4.70;;
9924;SDS011;5001;51.674;7.868;2023-04-25T04:28:41;14.10;;;5.00;;
9924;SDS011;5001;51.674;7.868;2023-04-25T04:31:36;17.33;;;5.93;;
9924;SDS011;5001;51.674;7.868;2023-04-25T04:34:04;11.17;;;4.37;;
9924;SDS011;5001;51.674;7.868;2023-04-25T04:36:32;11.57;;;5.67;;
9924;SDS011;5001;51.674;7.868;2023-04-25T04:38:59;11.13;;;4.20;;
9924;SDS011;5001;51.674;7.868;2023-04-25T04:41:43;12.97;;;5.10;;
9924;SDS011;5001;51.674;7.868;2023-04-25T04:44:29;17.60;;;5.53;;
9924;SDS011;5001;51.674;7.868;2023-04-25T04:47:08;18.83;;;6.00;;
9924;SDS011;5001;51.674;7.868;2023-04-25T04:50:15;15.53;;;5.03;;
9924;SDS011;5001;51.674;7.868;2023-04-25T04:53:15;18.87;;;5.03;;
9924;SDS011;5001;51.674;7.868;2023-04-25T04:55:50;16.73;;;5.63;;
9924;SDS011;5001;51.674;7.868;2023-04-25T04:58:28;27.97;;;5.97;;
9924;SDS011;5001;51.674;7.868;2023-04-25T05:01:25;10.07;;;4.67;;
9924;SDS011;5001;51.674;7.868;2023-04-25T05:04:02;21.13;;;5.23;;
9924;SDS011;5001;51.674;7.868;2023-04-25T05:06:45;11.27;;;4.30;;
9924;SDS011;5001;51.674;7.868;2023-04-25T05:09:14;15.90;;;4.53;;
9924;SDS011;5001;51.674;7.868;2023-04-25T05:12:02;16.70;;;5.27;;
9924;SDS011;5001;51.674;7.868;2023-04-25T05:14:38;19.73;;;4.83;;
9924;SDS011;5001;51.674;7.868;2023-04-25T05:17:12;19.20;;;5.33;;
9924;SDS011;5001;51.674;7.868;2023-04-25T05:19:54;14.50;;;4.67;;
9924;SDS011;5001;51.674;7.868;2023-04-25T05:22:48;14.73;;;4.83;;
9924;SDS011;5001;51.674;7.868;2023-04-25T05:25:28;14.77;;;5.10;;
9924;SDS011;5001;51.674;7.868;2023-04-25T05:28:24;9.83;;;3.73;;
9924;SDS011;5001;51.674;7.868;2023-04-25T05:31:27;15.60;;;4.90;;
9924;SDS011;5001;51.674;7.868;2023-04-25T05:34:01;18.33;;;5.90;;
9924;SDS011;5001;51.674;7.868;2023-04-25T05:36:40;11.07;;;4.07;;
9924;SDS011;5001;51.674;7.868;2023-04-25T05:39:07;13.07;;;4.50;;
9924;SDS011;5001;51.674;7.868;2023-04-25T05:42:10;26.57;;;5.70;;
9924;SDS011;5001;51.674;7.868;2023-04-25T05:45:00;16.87;;;4.00;;
9924;SDS011;5001;51.674;7.868;2023-04-25T05:47:35;17.43;;;4.47;;
9924;SDS011;5001;51.674;7.868;2023-04-25T05:50:08;16.17;;;4.03;;
9924;SDS011;5001;51.674;7.868;2023-04-25T05:52:57;10.67;;;3.57;;
9924;SDS011;5001;51.674;7.868;2023-04-25T05:55:30;8.93;;;3.60;;
9924;SDS011;5001;51.674;7.868;2023-04-25T05:58:00;11.53;;;4.47;;
9924;SDS011;5001;51.674;7.868;2023-04-25T06:00:27;14.33;;;4.43;;
9924;SDS011;5001;51.674;7.868;2023-04-25T06:03:02;13.53;;;3.83;;
9924;SDS011;5001;51.674;7.868;2023-04-25T06:05:30;13.20;;;4.27;;
9924;SDS011;5001;51.674;7.868;2023-04-25T06:07:58;10.00;;;3.53;;
9924;SDS011;5001;51.674;7.868;2023-04-25T06:10:25;11.03;;;3.37;;
9924;SDS011;5001;51.674;7.868;2023-04-25T06:12:52;8.97;;;3.70;;
9924;SDS011;5001;51.674;7.868;2023-04-25T06:15:20;11.83;;;3.13;;
9924;SDS011;5001;51.674;7.868;2023-04-25T06:17:54;9.80;;;3.23;;
9924;SDS011;5001;51.674;7.868;2023-04-25T06:20:22;16.10;;;4.27;;
9924;SDS011;5001;51.674;7.868;2023-04-25T06:22:50;11.55;;;3.80;;
9924;SDS011;5001;51.674;7.868;2023-04-25T06:25:20;9.20;;;2.90;;
9924;SDS011;5001;51.674;7.868;2023-04-25T06:27:47;14.30;;;4.03;;
9924;SDS011;5001;51.674;7.868;2023-04-25T06:30:15;14.25;;;4.25;;
9924;SDS011;5001;51.674;7.868;2023-04-25T06:32:44;9.43;;;4.10;;
9924;SDS011;5001;51.674;7.868;2023-04-25T06:35:11;8.88;;;2.70;;
9924;SDS011;5001;51.674;7.868;2023-04-25T06:37:39;16.73;;;3.60;;
9924;SDS011;5001;51.674;7.868;2023-04-25T06:40:07;17.00;;;4.00;;
9924;SDS011;5001;51.674;7.868;2023-04-25T06:42:34;8.88;;;3.03;;
9924;SDS011;5001;51.674;7.868;2023-04-25T06:45:21;13.17;;;3.10;;
9924;SDS011;5001;51.674;7.868;2023-04-25T06:47:48;11.07;;;3.33;;
9924;SDS011;5001;51.674;7.868;2023-04-25T06:50:16;12.05;;;3.50;;
9924;SDS011;5001;51.674;7.868;2023-04-25T06:52:43;13.90;;;3.50;;
9924;SDS011;5001;51.674;7.868;2023-04-25T06:55:10;12.02;;;3.20;;
9924;SDS011;5001;51.674;7.868;2023-04-25T06:57:55;11.60;;;3.30;;
9924;SDS011;5001;51.674;7.868;2023-04-25T07:00:45;12.43;;;3.80;;
9924;SDS011;5001;51.674;7.868;2023-04-25T07:03:12;11.20;;;3.47;;
9924;SDS011;5001;51.674;7.868;2023-04-25T07:05:40;10.60;;;3.80;;
9924;SDS011;5001;51.674;7.868;2023-04-25T07:08:07;12.20;;;3.75;;
9924;SDS011;5001;51.674;7.868;2023-04-25T07:10:34;16.13;;;4.13;;
9924;SDS011;5001;51.674;7.868;2023-04-25T07:13:01;14.57;;;3.50;;
9924;SDS011;5001;51.674;7.868;2023-04-25T07:15:29;10.07;;;3.38;;
9924;SDS011;5001;51.674;7.868;2023-04-25T07:17:57;12.93;;;3.33;;
9924;SDS011;5001;51.674;7.868;2023-04-25T07:20:24;18.35;;;3.47;;
9924;SDS011;5001;51.674;7.868;2023-04-25T07:22:52;11.85;;;3.30;;
9924;SDS011;5001;51.674;7.868;2023-04-25T07:25:19;11.40;;;3.35;;
9924;SDS011;5001;51.674;7.868;2023-04-25T07:27:46;13.02;;;3.03;;
9924;SDS011;5001;51.674;7.868;2023-04-25T07:30:17;12.30;;;3.20;;
9924;SDS011;5001;51.674;7.868;2023-04-25T07:32:44;16.25;;;3.53;;
9924;SDS011;5001;51.674;7.868;2023-04-25T07:35:11;9.63;;;3.15;;
9924;SDS011;5001;51.674;7.868;2023-04-25T07:37:40;6.57;;;2.67;;
9924;SDS011;5001;51.674;7.868;2023-04-25T07:40:11;10.05;;;3.38;;
9924;SDS011;5001;51.674;7.868;2023-04-25T07:42:44;7.07;;;2.13;;
9924;SDS011;5001;51.674;7.868;2023-04-25T07:45:15;9.40;;;2.90;;
9924;SDS011;5001;51.674;7.868;2023-04-25T07:47:42;9.13;;;3.15;;
9924;SDS011;5001;51.674;7.868;2023-04-25T07:50:09;13.50;;;3.35;;
9924;SDS011;5001;51.674;7.868;2023-04-25T07:52:37;6.65;;;2.80;;
9924;SDS011;5001;51.674;7.868;2023-04-25T07:55:16;10.05;;;3.17;;
9924;SDS011;5001;51.674;7.868;2023-04-25T07:57:56;8.18;;;2.50;;
9924;SDS011;5001;51.674;7.868;2023-04-25T08:00:23;8.85;;;3.00;;
9924;SDS011;5001;51.674;7.868;2023-04-25T08:03:01;5.93;;;2.38;;
9924;SDS011;5001;51.674;7.868;2023-04-25T08:05:29;10.57;;;2.55;;
9924;SDS011;5001;51.674;7.868;2023-04-25T08:08:01;7.50;;;2.83;;
9924;SDS011;5001;51.674;7.868;2023-04-25T08:10:29;7.88;;;2.78;;
9924;SDS011;5001;51.674;7.868;2023-04-25T08:12:56;7.30;;;2.67;;
9924;SDS011;5001;51.674;7.868;2023-04-25T08:15:23;7.22;;;2.85;;
9924;SDS011;5001;51.674;7.868;2023-04-25T08:17:50;12.63;;;3.45;;
9924;SDS011;5001;51.674;7.868;2023-04-25T08:20:18;7.22;;;2.33;;
9924;SDS011;5001;51.674;7.868;2023-04-25T08:22:45;11.18;;;2.65;;
9924;SDS011;5001;51.674;7.868;2023-04-25T08:25:24;8.80;;;2.58;;
9924;SDS011;5001;51.674;7.868;2023-04-25T08:27:52;5.18;;;2.25;;
9924;SDS011;5001;51.674;7.868;2023-04-25T08:30:21;7.43;;;2.20;;
9924;SDS011;5001;51.674;7.868;2023-04-25T08:32:49;10.13;;;2.65;;
9924;SDS011;5001;51.674;7.868;2023-04-25T08:35:39;11.60;;;3.17;;
9924;SDS011;5001;51.674;7.868;2023-04-25T08:38:06;7.93;;;2.50;;
9924;SDS011;5001;51.674;7.868;2023-04-25T08:40:35;6.65;;;2.60;;
9924;SDS011;5001;51.674;7.868;2023-04-25T08:43:11;9.95;;;2.50;;
9924;SDS011;5001;51.674;7.868;2023-04-25T08:45:41;5.00;;;2.20;;
9924;SDS011;5001;51.674;7.868;2023-04-25T08:48:14;7.75;;;2.30;;
9924;SDS011;5001;51.674;7.868;2023-04-25T08:53:21;8.93;;;2.60;;
9924;SDS011;5001;51.674;7.868;2023-04-25T08:55:57;7.13;;;2.28;;
9924;SDS011;5001;51.674;7.868;2023-04-25T08:58:26;7.88;;;2.70;;
9924;SDS011;5001;51.674;7.868;2023-04-25T09:00:54;7.97;;;2.63;;
9924;SDS011;5001;51.674;7.868;2023-04-25T09:03:25;6.90;;;2.45;;
9924;SDS011;5001;51.674;7.868;2023-04-25T09:05:53;7.47;;;2.80;;
9924;SDS011;5001;51.674;7.868;2023-04-25T09:08:21;4.97;;;2.47;;
9924;SDS011;5001;51.674;7.868;2023-04-25T09:10:48;6.72;;;2.50;;
9924;SDS011;5001;51.674;7.868;2023-04-25T09:13:23;8.60;;;2.55;;
9924;SDS011;5001;51.674;7.868;2023-04-25T09:16:12;7.55;;;2.58;;
9924;SDS011;5001;51.674;7.868;2023-04-25T09:19:06;7.97;;;3.50;;
9924;SDS011;5001;51.674;7.868;2023-04-25T09:21:34;9.77;;;2.92;;
9924;SDS011;5001;51.674;7.868;2023-04-25T09:24:01;8.77;;;2.60;;
9924;SDS011;5001;51.674;7.868;2023-04-25T09:26:28;14.35;;;5.75;;
9924;SDS011;5001;51.674;7.868;2023-04-25T09:29:07;13.38;;;5.47;;
9924;SDS011;5001;51.674;7.868;2023-04-25T09:31:38;7.03;;;2.15;;
9924;SDS011;5001;51.674;7.868;2023-04-25T09:34:07;9.32;;;3.58;;
9924;SDS011;5001;51.674;7.868;2023-04-25T09:36:43;11.27;;;2.95;;
9924;SDS011;5001;51.674;7.868;2023-04-25T09:39:24;6.25;;;3.00;;
9924;SDS011;5001;51.674;7.868;2023-04-25T09:42:02;9.07;;;2.92;;
9924;SDS011;5001;51.674;7.868;2023-04-25T09:44:31;9.88;;;2.92;;
9924;SDS011;5001;51.674;7.868;2023-04-25T09:46:58;6.47;;;2.17;;
9924;SDS011;5001;51.674;7.868;2023-04-25T09:49:28;7.70;;;3.28;;
9924;SDS011;5001;51.674;7.868;2023-04-25T09:52:00;6.80;;;3.30;;
9924;SDS011;5001;51.674;7.868;2023-04-25T09:54:34;8.05;;;2.78;;
9924;SDS011;5001;51.674;7.868;2023-04-25T09:57:09;6.40;;;2.88;;
9924;SDS011;5001;51.674;7.868;2023-04-25T09:59:39;6.97;;;2.17;;
9924;SDS011;5001;51.674;7.868;2023-04-25T10:02:10;7.32;;;3.08;;
9924;SDS011;5001;51.674;7.868;2023-04-25T10:04:39;9.60;;;3.58;;
9924;SDS011;5001;51.674;7.868;2023-04-25T10:07:17;5.72;;;3.20;;
9924;SDS011;5001;51.674;7.868;2023-04-25T10:09:47;6.03;;;3.47;;
9924;SDS011;5001;51.674;7.868;2023-04-25T10:12:16;11.48;;;3.65;;
9924;SDS011;5001;51.674;7.868;2023-04-25T10:14:44;7.88;;;3.13;;
9924;SDS011;5001;51.674;7.868;2023-04-25T10:17:12;6.13;;;4.10;;
9924;SDS011;5001;51.674;7.868;2023-04-25T10:19:39;6.40;;;2.33;;
9924;SDS011;5001;51.674;7.868;2023-04-25T10:24:33;4.95;;;3.42;;
9924;SDS011;5001;51.674;7.868;2023-04-25T10:27:03;6.50;;;3.72;;
9924;SDS011;5001;51.674;7.868;2023-04-25T10:29:31;7.78;;;2.80;;
9924;SDS011;5001;51.674;7.868;2023-04-25T10:31:58;6.28;;;3.30;;
9924;SDS011;5001;51.674;7.868;2023-04-25T10:34:38;7.93;;;2.25;;
9924;SDS011;5001;51.674;7.868;2023-04-25T10:37:10;5.13;;;3.90;;
9924;SDS011;5001;51.674;7.868;2023-04-25T10:39:38;9.60;;;5.25;;
9924;SDS011;5001;51.674;7.868;2023-04-25T10:42:07;10.10;;;3.67;;
9924;SDS011;5001;51.674;7.868;2023-04-25T10:44:34;5.95;;;2.65;;
9924;SDS011;5001;51.674;7.868;2023-04-25T10:47:05;6.43;;;2.95;;
9924;SDS011;5001;51.674;7.868;2023-04-25T10:49:34;3.97;;;1.83;;
9924;SDS011;5001;51.674;7.868;2023-04-25T10:54:57;7.20;;;3.42;;
9924;SDS011;5001;51.674;7.868;2023-04-25T10:57:38;7.40;;;3.67;;
9924;SDS011;5001;51.674;7.868;2023-04-25T11:00:10;8.27;;;4.30;;
9924;SDS011;5001;51.674;7.868;2023-04-25T11:05:26;5.43;;;2.30;;
9924;SDS011;5001;51.674;7.868;2023-04-25T11:08:10;8.90;;;4.20;;
9924;SDS011;5001;51.674;7.868;2023-04-25T11:10:40;10.05;;;2.45;;
9924;SDS011;5001;51.674;7.868;2023-04-25T11:13:08;8.82;;;4.70;;
9924;SDS011;5001;51.674;7.868;2023-04-25T11:15:35;6.25;;;3.13;;
9924;SDS011;5001;51.674;7.868;2023-04-25T11:18:03;4.75;;;2.95;;
9924;SDS011;5001;51.674;7.868;2023-04-25T11:20:30;6.28;;;2.55;;
9924;SDS011;5001;51.674;7.868;2023-04-25T11:22:57;5.43;;;2.20;;
9924;SDS011;5001;51.674;7.868;2023-04-25T11:25:33;4.50;;;2.65;;
9924;SDS011;5001;51.674;7.868;2023-04-25T11:28:03;6.70;;;2.97;;
9924;SDS011;5001;51.674;7.868;2023-04-25T11:30:30;5.45;;;2.97;;
9924;SDS011;5001;51.674;7.868;2023-04-25T11:32:57;5.45;;;2.90;;
9924;SDS011;5001;51.674;7.868;2023-04-25T11:35:25;5.72;;;2.53;;
9924;SDS011;5001;51.674;7.868;2023-04-25T11:37:52;4.30;;;2.10;;
9924;SDS011;5001;51.674;7.868;2023-04-25T11:40:19;6.15;;;2.58;;
9924;SDS011;5001;51.674;7.868;2023-04-25T11:42:46;6.95;;;2.67;;
9924;SDS011;5001;51.674;7.868;2023-04-25T11:45:13;6.30;;;2.13;;
9924;SDS011;5001;51.674;7.868;2023-04-25T11:47:41;4.18;;;2.30;;
9924;SDS011;5001;51.674;7.868;2023-04-25T11:50:08;4.57;;;2.08;;
9924;SDS011;5001;51.674;7.868;2023-04-25T11:52:39;4.43;;;2.03;;
9924;SDS011;5001;51.674;7.868;2023-04-25T11:55:14;4.38;;;1.95;;
9924;SDS011;5001;51.674;7.868;2023-04-25T11:57:43;4.05;;;2.13;;
9924;SDS011;5001;51.674;7.868;2023-04-25T12:00:16;6.03;;;2.25;;
9924;SDS011;5001;51.674;7.868;2023-04-25T12:02:47;3.95;;;2.22;;
9924;SDS011;5001;51.674;7.868;2023-04-25T12:05:17;3.60;;;1.60;;
9924;SDS011;5001;51.674;7.868;2023-04-25T12:08:20;4.07;;;2.03;;
9924;SDS011;5001;51.674;7.868;2023-04-25T12:10:46;6.75;;;2.20;;
9924;SDS011;5001;51.674;7.868;2023-04-25T12:13:20;5.63;;;2.58;;
9924;SDS011;5001;51.674;7.868;2023-04-25T12:15:48;5.25;;;2.00;;
9924;SDS011;5001;51.674;7.868;2023-04-25T12:18:35;4.25;;;1.80;;
9924;SDS011;5001;51.674;7.868;2023-04-25T12:21:02;4.03;;;1.98;;
9924;SDS011;5001;51.674;7.868;2023-04-25T12:23:31;5.70;;;2.65;;
9924;SDS011;5001;51.674;7.868;2023-04-25T12:25:58;7.82;;;2.60;;
9924;SDS011;5001;51.674;7.868;2023-04-25T12:28:25;3.08;;;1.52;;
9924;SDS011;5001;51.674;7.868;2023-04-25T12:31:02;3.28;;;2.05;;
9924;SDS011;5001;51.674;7.868;2023-04-25T12:33:31;4.10;;;2.00;;
9924;SDS011;5001;51.674;7.868;2023-04-25T12:36:00;5.55;;;1.95;;
9924;SDS011;5001;51.674;7.868;2023-04-25T12:38:36;8.55;;;2.15;;
9924;SDS011;5001;51.674;7.868;2023-04-25T12:41:04;7.60;;;2.07;;
9924;SDS011;5001;51.674;7.868;2023-04-25T12:43:32;5.65;;;2.30;;
9924;SDS011;5001;51.674;7.868;2023-04-25T12:45:59;4.90;;;1.70;;
9924;SDS011;5001;51.674;7.868;2023-04-25T12:48:26;4.40;;;2.00;;
9924;SDS011;5001;51.674;7.868;2023-04-25T12:50:53;5.27;;;1.90;;
9924;SDS011;5001;51.674;7.868;2023-04-25T12:53:21;5.73;;;1.90;;
9924;SDS011;5001;51.674;7.868;2023-04-25T12:55:50;5.47;;;1.90;;
9924;SDS011;5001;51.674;7.868;2023-04-25T12:58:18;5.00;;;2.30;;
9924;SDS011;5001;51.674;7.868;2023-04-25T13:00:49;8.40;;;2.30;;
9924;SDS011;5001;51.674;7.868;2023-04-25T13:03:16;10.30;;;4.13;;
9924;SDS011;5001;51.674;7.868;2023-04-25T13:05:44;6.93;;;3.83;;
9924;SDS011;5001;51.674;7.868;2023-04-25T13:08:11;6.60;;;2.13;;
9924;SDS011;5001;51.674;7.868;2023-04-25T13:10:38;8.90;;;1.90;;
9924;SDS011;5001;51.674;7.868;2023-04-25T13:13:06;3.83;;;1.70;;
9924;SDS011;5001;51.674;7.868;2023-04-25T13:15:33;7.03;;;2.17;;
9924;SDS011;5001;51.674;7.868;2023-04-25T13:18:00;7.40;;;2.50;;
9924;SDS011;5001;51.674;7.868;2023-04-25T13:20:27;5.13;;;1.87;;
9924;SDS011;5001;51.674;7.868;2023-04-25T13:22:54;7.63;;;2.70;;
9924;SDS011;5001;51.674;7.868;2023-04-25T13:25:21;4.35;;;1.90;;
9924;SDS011;5001;51.674;7.868;2023-04-25T13:27:49;5.75;;;2.10;;
9924;SDS011;5001;51.674;7.868;2023-04-25T13:30:16;11.47;;;3.57;;
9924;SDS011;5001;51.674;7.868;2023-04-25T13:32:43;5.50;;;2.20;;
9924;SDS011;5001;51.674;7.868;2023-04-25T13:35:11;13.93;;;4.07;;
9924;SDS011;5001;51.674;7.868;2023-04-25T13:37:39;10.80;;;3.00;;
9924;SDS011;5001;51.674;7.868;2023-04-25T13:40:07;6.65;;;2.75;;
9924;SDS011;5001;51.674;7.868;2023-04-25T13:42:37;6.97;;;1.92;;
9924;SDS011;5001;51.674;7.868;2023-04-25T13:45:04;4.82;;;2.05;;
9924;SDS011;5001;51.674;7.868;2023-04-25T13:47:32;6.95;;;2.50;;
9924;SDS011;5001;51.674;7.868;2023-04-25T13:49:59;6.03;;;3.05;;
9924;SDS011;5001;51.674;7.868;2023-04-25T13:52:29;5.20;;;1.92;;
9924;SDS011;5001;51.674;7.868;2023-04-25T13:54:56;5.13;;;2.30;;
9924;SDS011;5001;51.674;7.868;2023-04-25T13:57:23;8.82;;;2.30;;
9924;SDS011;5001;51.674;7.868;2023-04-25T13:59:50;5.87;;;2.57;;
9924;SDS011;5001;51.674;7.868;2023-04-25T14:02:18;5.65;;;2.63;;
9924;SDS011;5001;51.674;7.868;2023-04-25T14:04:45;4.37;;;1.80;;
9924;SDS011;5001;51.674;7.868;2023-04-25T14:07:12;4.47;;;1.60;;
9924;SDS011;5001;51.674;7.868;2023-04-25T14:09:42;5.67;;;2.27;;
9924;SDS011;5001;51.674;7.868;2023-04-25T14:12:09;8.43;;;2.60;;
9924;SDS011;5001;51.674;7.868;2023-04-25T14:14:36;7.37;;;2.30;;
9924;SDS011;5001;51.674;7.868;2023-04-25T14:17:04;7.37;;;2.40;;
9924;SDS011;5001;51.674;7.868;2023-04-25T14:19:31;3.35;;;2.10;;
9924;SDS011;5001;51.674;7.868;2023-04-25T14:21:58;4.88;;;2.28;;
9924;SDS011;5001;51.674;7.868;2023-04-25T14:24:25;4.90;;;1.92;;
9924;SDS011;5001;51.674;7.868;2023-04-25T14:26:52;4.97;;;2.00;;
9924;SDS011;5001;51.674;7.868;2023-04-25T14:29:19;4.25;;;2.85;;
9924;SDS011;5001;51.674;7.868;2023-04-25T14:31:46;5.55;;;2.92;;
9924;SDS011;5001;51.674;7.868;2023-04-25T14:34:13;6.60;;;2.50;;
9924;SDS011;5001;51.674;7.868;2023-04-25T14:36:40;4.97;;;2.22;;
9924;SDS011;5001;51.674;7.868;2023-04-25T14:39:08;5.70;;;2.08;;
9924;SDS011;5001;51.674;7.868;2023-04-25T14:41:36;3.83;;;1.80;;
9924;SDS011;5001;51.674;7.868;2023-04-25T14:44:03;4.82;;;1.40;;
9924;SDS011;5001;51.674;7.868;2023-04-25T14:46:31;4.53;;;1.70;;
9924;SDS011;5001;51.674;7.868;2023-04-25T14:48:58;3.53;;;1.70;;
9924;SDS011;5001;51.674;7.868;2023-04-25T14:51:25;6.63;;;1.80;;
9924;SDS011;5001;51.674;7.868;2023-04-25T14:53:52;3.47;;;1.80;;
9924;SDS011;5001;51.674;7.868;2023-04-25T14:56:20;4.80;;;1.90;;
9924;SDS011;5001;51.674;7.868;2023-04-25T14:58:47;7.80;;;2.40;;
9924;SDS011;5001;51.674;7.868;2023-04-25T15:01:14;6.13;;;2.27;;
9924;SDS011;5001;51.674;7.868;2023-04-25T15:03:41;4.57;;;1.50;;
9924;SDS011;5001;51.674;7.868;2023-04-25T15:06:09;5.40;;;1.97;;
9924;SDS011;5001;51.674;7.868;2023-04-25T15:08:36;7.03;;;2.57;;
9924;SDS011;5001;51.674;7.868;2023-04-25T15:11:03;15.17;;;7.30;;
9924;SDS011;5001;51.674;7.868;2023-04-25T15:13:30;10.07;;;4.27;;
9924;SDS011;5001;51.674;7.868;2023-04-25T15:15:58;9.43;;;4.90;;
9924;SDS011;5001;51.674;7.868;2023-04-25T15:18:25;14.00;;;7.13;;
9924;SDS011;5001;51.674;7.868;2023-04-25T15:20:52;5.70;;;2.70;;
9924;SDS011;5001;51.674;7.868;2023-04-25T15:23:20;9.27;;;4.80;;
9924;SDS011;5001;51.674;7.868;2023-04-25T15:25:49;8.20;;;3.97;;
9924;SDS011;5001;51.674;7.868;2023-04-25T15:28:16;5.40;;;2.90;;
9924;SDS011;5001;51.674;7.868;2023-04-25T15:30:43;10.73;;;6.80;;
9924;SDS011;5001;51.674;7.868;2023-04-25T15:33:11;20.50;;;11.20;;
9924;SDS011;5001;51.674;7.868;2023-04-25T15:35:39;12.93;;;6.77;;
9924;SDS011;5001;51.674;7.868;2023-04-25T15:38:06;10.70;;;4.70;;
9924;SDS011;5001;51.674;7.868;2023-04-25T15:40:34;16.90;;;8.53;;